Time;durP1;ratioP1;P1;durP2;ratioP2;P2;SDS_P1;SDS_P2;PMS_P1;PMS_P2;Temp;Humidity;BMP_temperature;BMP_pressure;BME280_temperature;BME280_humidity;BME280_pressure;Samples;Min_cycle;Max_cycle;Signal;HPM_P1;HPM_P2
2021/10/17 00:00:58;;;;;;;0.00;0.00;;;9.70;99.90;;;;;;6298014;22;20022;-80
2021/10/17 00:03:24;;;;;;;0.00;0.00;;;9.70;99.90;;;;;;6272347;22;20011;-79
2021/10/17 00:05:51;;;;;;;0.00;0.00;;;9.70;99.90;;;;;;6272806;22;20019;-79
2021/10/17 00:08:18;;;;;;;0.00;0.00;;;9.70;99.90;;;;;;6322914;22;20019;-79
2021/10/17 00:10:45;;;;;;;0.10;0.10;;;9.70;99.90;;;;;;6273008;22;20019;-80
2021/10/17 00:13:11;;;;;;;0.00;0.00;;;9.70;99.90;;;;;;6297769;22;20012;-79
2021/10/17 00:15:39;;;;;;;0.17;0.17;;;9.70;99.90;;;;;;6297395;22;20015;-79
2021/10/17 00:18:07;;;;;;;0.00;0.00;;;9.70;99.90;;;;;;6297906;22;20026;-79
2021/10/17 00:20:34;;;;;;;0.00;0.00;;;9.70;99.90;;;;;;6272514;22;20099;-80
2021/10/17 00:23:01;;;;;;;0.00;0.00;;;9.70;99.90;;;;;;6297450;22;20016;-80
2021/10/17 00:25:28;;;;;;;0.00;0.00;;;9.70;99.90;;;;;;6297503;22;20025;-79
2021/10/17 00:27:55;;;;;;;0.00;0.00;;;9.70;99.90;;;;;;6272404;22;20046;-79
2021/10/17 00:30:22;;;;;;;0.00;0.00;;;9.70;99.90;;;;;;6322852;22;20015;-80
2021/10/17 00:32:49;;;;;;;0.00;0.00;;;9.70;99.90;;;;;;6297584;22;20061;-79
2021/10/17 00:35:16;;;;;;;0.10;0.10;;;9.70;99.90;;;;;;6272618;22;20204;-80
2021/10/17 00:37:43;;;;;;;0.00;0.00;;;9.70;99.90;;;;;;6322644;22;20046;-80
2021/10/17 00:40:12;;;;;;;0.00;0.00;;;9.60;99.90;;;;;;6297134;22;20030;-79
2021/10/17 00:42:40;;;;;;;0.00;0.00;;;9.60;99.90;;;;;;6297272;22;20015;-79
2021/10/17 00:45:10;;;;;;;0.00;0.00;;;9.60;99.90;;;;;;6297608;22;20030;-80
2021/10/17 00:47:37;;;;;;;0.28;0.25;;;9.60;99.90;;;;;;6297259;22;20019;-80
2021/10/17 00:50:06;;;;;;;0.00;0.00;;;9.60;99.90;;;;;;6297603;22;20018;-80
2021/10/17 00:52:34;;;;;;;0.00;0.00;;;9.60;99.90;;;;;;6297028;22;20512;-80
2021/10/17 00:55:03;;;;;;;0.00;0.00;;;9.60;99.90;;;;;;6322733;22;20046;-80
2021/10/17 00:57:31;;;;;;;0.00;0.00;;;9.60;99.90;;;;;;6272308;22;20086;-80
2021/10/17 00:59:57;;;;;;;0.00;0.00;;;9.60;99.90;;;;;;6297269;22;20015;-79
2021/10/17 01:02:24;;;;;;;0.10;0.10;;;9.60;99.90;;;;;;6322122;22;20022;-80
2021/10/17 01:04:51;;;;;;;0.10;0.10;;;9.50;99.90;;;;;;6297546;22;20026;-79
2021/10/17 01:07:18;;;;;;;0.00;0.00;;;9.60;99.90;;;;;;6297455;22;20768;-80
2021/10/17 01:09:44;;;;;;;0.10;0.10;;;9.50;99.90;;;;;;6272055;22;20026;-80
2021/10/17 01:12:13;;;;;;;0.00;0.00;;;9.50;99.90;;;;;;6297103;22;20097;-79
2021/10/17 01:14:39;;;;;;;0.00;0.00;;;9.50;99.90;;;;;;6271592;22;20046;-80
2021/10/17 01:17:06;;;;;;;0.00;0.00;;;9.50;99.90;;;;;;6297323;22;20016;-79
2021/10/17 01:19:33;;;;;;;0.80;0.30;;;9.40;99.90;;;;;;6246583;22;20012;-79
2021/10/17 01:22:01;;;;;;;0.00;0.00;;;9.40;99.90;;;;;;6271969;22;20094;-79
2021/10/17 01:24:28;;;;;;;0.00;0.00;;;9.40;99.90;;;;;;6297220;22;20015;-79
2021/10/17 01:26:55;;;;;;;0.00;0.00;;;9.40;99.90;;;;;;6322816;22;20014;-79
2021/10/17 01:29:21;;;;;;;0.00;0.00;;;9.40;99.90;;;;;;6322852;22;20015;-79
2021/10/17 01:31:53;;;;;;;0.10;0.10;;;9.40;99.90;;;;;;6297137;22;20015;-79
2021/10/17 01:34:22;;;;;;;0.00;0.00;;;9.30;99.90;;;;;;6322708;22;20016;-79
2021/10/17 01:36:49;;;;;;;0.03;0.03;;;9.30;99.90;;;;;;6271583;22;20069;-79
2021/10/17 01:39:18;;;;;;;0.10;0.10;;;9.30;99.90;;;;;;6297137;22;20003;-80
2021/10/17 01:41:45;;;;;;;0.10;0.10;;;9.20;99.90;;;;;;6296730;22;20460;-80
2021/10/17 01:44:28;;;;;;;0.00;0.00;;;9.20;99.90;;;;;;6272530;22;20023;-80
2021/10/17 01:46:56;;;;;;;0.00;0.00;;;9.20;99.90;;;;;;6324860;22;20109;-80
2021/10/17 01:49:22;;;;;;;0.00;0.00;;;9.20;99.90;;;;;;6274110;22;20019;-79
2021/10/17 01:51:49;;;;;;;0.00;0.00;;;9.20;99.90;;;;;;6299070;22;20011;-80
2021/10/17 01:54:17;;;;;;;0.00;0.00;;;9.10;99.90;;;;;;6273753;22;20112;-80
2021/10/17 01:56:43;;;;;;;0.00;0.00;;;9.20;99.90;;;;;;6298752;22;20018;-79
2021/10/17 01:59:10;;;;;;;0.00;0.00;;;9.20;99.90;;;;;;6273994;22;20444;-79
2021/10/17 02:01:37;;;;;;;0.00;0.00;;;9.10;99.90;;;;;;6298559;22;20418;-79
2021/10/17 02:04:04;;;;;;;0.00;0.00;;;9.10;99.90;;;;;;6299133;22;20023;-79
2021/10/17 02:06:32;;;;;;;0.03;0.03;;;9.10;99.90;;;;;;6324392;22;20073;-79
2021/10/17 02:08:59;;;;;;;0.10;0.10;;;9.00;99.90;;;;;;6298914;22;20410;-79
2021/10/17 02:11:26;;;;;;;0.43;0.20;;;9.10;99.90;;;;;;6298946;22;20079;-79
2021/10/17 02:13:53;;;;;;;0.10;0.10;;;9.00;99.90;;;;;;6298765;22;20047;-80
2021/10/17 02:16:20;;;;;;;0.10;0.10;;;9.00;99.90;;;;;;6299225;22;20061;-79
2021/10/17 02:18:46;;;;;;;0.10;0.10;;;8.90;99.90;;;;;;6299366;22;20020;-79
2021/10/17 02:21:13;;;;;;;0.00;0.00;;;9.00;99.90;;;;;;6299046;22;20008;-79
2021/10/17 02:23:40;;;;;;;0.10;0.10;;;9.00;99.90;;;;;;6298870;22;20470;-79
2021/10/17 02:26:07;;;;;;;0.00;0.00;;;8.90;99.90;;;;;;6273630;22;20023;-80
2021/10/17 02:28:35;;;;;;;0.13;0.10;;;8.90;99.90;;;;;;6273624;22;20015;-79
2021/10/17 02:31:02;;;;;;;0.00;0.00;;;8.90;99.90;;;;;;6324294;22;20019;-79
2021/10/17 02:33:29;;;;;;;0.00;0.00;;;8.90;99.90;;;;;;6298919;22;20012;-80
2021/10/17 02:35:55;;;;;;;0.05;0.05;;;8.90;99.90;;;;;;6273381;22;20387;-80
2021/10/17 02:38:22;;;;;;;0.10;0.10;;;8.90;99.90;;;;;;6298714;22;20057;-80
2021/10/17 02:40:49;;;;;;;0.00;0.00;;;8.90;99.90;;;;;;6247883;22;20015;-80
2021/10/17 02:43:16;;;;;;;0.05;0.05;;;8.90;99.90;;;;;;6298175;22;20077;-80
2021/10/17 02:45:44;;;;;;;0.00;0.00;;;8.90;99.90;;;;;;6298065;22;20054;-79
2021/10/17 02:48:11;;;;;;;0.10;0.10;;;9.00;99.90;;;;;;6323846;22;20019;-79
2021/10/17 02:50:38;;;;;;;0.00;0.00;;;8.90;99.90;;;;;;6298086;22;20015;-79
2021/10/17 02:53:05;;;;;;;0.00;0.00;;;8.90;99.90;;;;;;6298174;22;20023;-80
2021/10/17 02:55:31;;;;;;;0.00;0.00;;;8.90;99.90;;;;;;6273100;22;20015;-80
2021/10/17 02:57:58;;;;;;;0.10;0.10;;;8.90;99.90;;;;;;6248123;22;20061;-79
2021/10/17 03:00:25;;;;;;;0.03;0.03;;;8.90;99.90;;;;;;6273482;22;20051;-79
2021/10/17 03:02:52;;;;;;;0.00;0.00;;;8.90;99.90;;;;;;6298618;22;20089;-79
2021/10/17 03:05:19;;;;;;;0.00;0.00;;;9.00;99.90;;;;;;6324021;22;20019;-79
2021/10/17 03:07:45;;;;;;;0.00;0.00;;;8.90;99.90;;;;;;6273033;22;20478;-79
2021/10/17 03:10:12;;;;;;;0.10;0.10;;;8.90;99.90;;;;;;6273584;22;20015;-79
2021/10/17 03:12:39;;;;;;;0.00;0.00;;;8.90;99.90;;;;;;6323493;22;20022;-79
2021/10/17 03:15:06;;;;;;;0.05;0.05;;;8.90;99.90;;;;;;6248236;22;20093;-80
2021/10/17 03:17:33;;;;;;;0.10;0.10;;;9.00;99.90;;;;;;6248489;22;20076;-80
2021/10/17 03:20:00;;;;;;;0.03;0.03;;;9.00;99.90;;;;;;6298022;22;20019;-80
2021/10/17 03:22:27;;;;;;;0.10;0.10;;;9.00;99.90;;;;;;6323720;22;20451;-80
2021/10/17 03:24:54;;;;;;;0.10;0.10;;;8.90;99.90;;;;;;6272899;22;20050;-80
2021/10/17 03:27:20;;;;;;;0.10;0.10;;;9.00;99.90;;;;;;6323495;22;20015;-80
2021/10/17 03:29:47;;;;;;;0.00;0.00;;;9.00;99.90;;;;;;6297913;22;20565;-79
2021/10/17 03:32:14;;;;;;;0.10;0.10;;;9.00;99.90;;;;;;6247773;22;20019;-80
2021/10/17 03:34:40;;;;;;;0.00;0.00;;;9.00;99.90;;;;;;6247939;22;20015;-79
2021/10/17 03:37:07;;;;;;;0.00;0.00;;;9.00;99.90;;;;;;6298398;22;20015;-79
2021/10/17 03:39:34;;;;;;;0.10;0.10;;;9.00;99.90;;;;;;6272973;22;20011;-78
2021/10/17 03:42:00;;;;;;;0.00;0.00;;;9.00;99.90;;;;;;6247395;22;20019;-79
2021/10/17 03:44:27;;;;;;;0.00;0.00;;;9.00;99.90;;;;;;6298013;22;20332;-79
2021/10/17 03:46:54;;;;;;;0.00;0.00;;;9.00;99.90;;;;;;6297647;22;20022;-79
2021/10/17 03:49:20;;;;;;;0.10;0.10;;;9.00;99.90;;;;;;6272619;22;20043;-79
2021/10/17 03:51:47;;;;;;;0.10;0.10;;;9.00;99.90;;;;;;6297564;22;20014;-79
2021/10/17 03:54:14;;;;;;;0.10;0.10;;;9.00;99.90;;;;;;6247592;22;20085;-79
2021/10/17 03:56:41;;;;;;;0.10;0.10;;;9.00;99.90;;;;;;6297864;22;20015;-80
2021/10/17 03:59:07;;;;;;;0.00;0.00;;;9.00;99.90;;;;;;6297798;22;20066;-79
2021/10/17 04:01:34;;;;;;;0.10;0.10;;;9.00;99.90;;;;;;6247903;22;20395;-80
2021/10/17 04:04:01;;;;;;;0.00;0.00;;;9.00;99.90;;;;;;6247110;22;20020;-79
2021/10/17 04:06:27;;;;;;;0.10;0.10;;;8.90;99.90;;;;;;6247426;22;20026;-80
2021/10/17 04:08:54;;;;;;;0.00;0.00;;;8.90;99.90;;;;;;6297425;22;20019;-80
2021/10/17 04:11:21;;;;;;;0.10;0.10;;;8.90;99.90;;;;;;6247672;22;20018;-80
2021/10/17 04:13:47;;;;;;;0.10;0.10;;;8.90;99.90;;;;;;6297493;22;20100;-80
2021/10/17 04:16:14;;;;;;;0.10;0.10;;;8.90;99.90;;;;;;6297909;22;20016;-79
2021/10/17 04:18:41;;;;;;;0.08;0.08;;;8.90;99.90;;;;;;6323450;22;20090;-80
2021/10/17 04:21:07;;;;;;;0.08;0.03;;;8.90;99.90;;;;;;6272757;22;20015;-79
2021/10/17 04:23:34;;;;;;;0.00;0.00;;;8.90;99.90;;;;;;6297665;22;20094;-79
2021/10/17 04:26:01;;;;;;;0.00;0.00;;;9.00;99.90;;;;;;6322939;22;20077;-79
2021/10/17 04:28:27;;;;;;;0.00;0.00;;;8.90;99.90;;;;;;6272398;22;20098;-80
2021/10/17 04:30:54;;;;;;;0.05;0.05;;;8.90;99.90;;;;;;6272279;22;20015;-79
2021/10/17 04:33:21;;;;;;;0.10;0.10;;;8.90;99.90;;;;;;6323364;22;20019;-80
2021/10/17 04:35:48;;;;;;;0.10;0.10;;;8.90;99.90;;;;;;6297521;22;20019;-79
2021/10/17 04:38:14;;;;;;;0.00;0.00;;;8.90;99.90;;;;;;6323350;22;20022;-80
2021/10/17 04:40:42;;;;;;;0.00;0.00;;;8.90;99.90;;;;;;6322824;22;20076;-79
2021/10/17 04:43:11;;;;;;;0.00;0.00;;;8.90;99.90;;;;;;6297189;22;20019;-79
2021/10/17 04:45:41;;;;;;;0.00;0.00;;;8.90;99.90;;;;;;6297270;22;20449;-79
2021/10/17 04:48:08;;;;;;;0.10;0.10;;;8.90;99.90;;;;;;6272198;22;20026;-80
2021/10/17 04:50:36;;;;;;;0.10;0.10;;;9.00;99.90;;;;;;6297375;22;20455;-80
2021/10/17 04:53:03;;;;;;;0.10;0.10;;;8.80;99.90;;;;;;6297391;22;20052;-80
2021/10/17 04:55:30;;;;;;;0.00;0.00;;;9.00;99.90;;;;;;6297646;22;20015;-79
2021/10/17 04:57:57;;;;;;;0.00;0.00;;;8.90;99.90;;;;;;6246988;22;20011;-79
2021/10/17 05:00:24;;;;;;;0.00;0.00;;;8.90;99.90;;;;;;6297406;22;20094;-80
2021/10/17 05:02:50;;;;;;;0.00;0.00;;;8.90;99.90;;;;;;6271791;22;20019;-80
2021/10/17 05:05:17;;;;;;;0.00;0.00;;;8.90;99.90;;;;;;6297355;22;20016;-80
2021/10/17 05:07:44;;;;;;;0.08;0.08;;;8.90;99.90;;;;;;6247470;22;20019;-79
2021/10/17 05:10:10;;;;;;;0.10;0.10;;;8.90;99.90;;;;;;6297188;22;20019;-79
2021/10/17 05:12:37;;;;;;;0.00;0.00;;;8.90;99.90;;;;;;6322845;22;20023;-79
2021/10/17 05:15:04;;;;;;;0.00;0.00;;;8.90;99.90;;;;;;6297189;22;20019;-80
2021/10/17 05:17:31;;;;;;;0.00;0.00;;;8.90;99.90;;;;;;6271978;22;20669;-79
2021/10/17 05:19:57;;;;;;;0.00;0.00;;;8.90;99.90;;;;;;6296680;22;20019;-79
2021/10/17 05:22:24;;;;;;;0.00;0.00;;;8.90;99.90;;;;;;6272146;22;20094;-79
2021/10/17 05:24:51;;;;;;;0.00;0.00;;;8.90;99.90;;;;;;6322735;22;20069;-79
2021/10/17 05:27:17;;;;;;;0.00;0.00;;;8.90;99.90;;;;;;6297734;22;20096;-79
2021/10/17 05:29:44;;;;;;;0.00;0.00;;;8.90;99.90;;;;;;6297328;22;20020;-79
2021/10/17 05:32:11;;;;;;;0.10;0.10;;;8.90;99.90;;;;;;6296827;22;20018;-79
2021/10/17 05:34:37;;;;;;;0.10;0.10;;;8.90;99.90;;;;;;6297104;22;20164;-79
2021/10/17 05:37:04;;;;;;;0.10;0.10;;;8.90;99.90;;;;;;6296794;22;20026;-79
2021/10/17 05:39:31;;;;;;;0.00;0.00;;;8.90;99.90;;;;;;6272207;22;20034;-80
2021/10/17 05:41:57;;;;;;;0.00;0.00;;;8.90;99.90;;;;;;6297084;22;20429;-79
2021/10/17 05:44:24;;;;;;;0.00;0.00;;;8.90;99.90;;;;;;6247258;22;20089;-80
2021/10/17 05:46:53;;;;;;;0.00;0.00;;;8.90;99.90;;;;;;6297241;22;20094;-80
2021/10/17 05:49:20;;;;;;;0.10;0.10;;;9.00;99.90;;;;;;6296932;22;20018;-80
2021/10/17 05:51:46;;;;;;;0.00;0.00;;;8.90;99.90;;;;;;6297136;22;20020;-80
2021/10/17 05:54:13;;;;;;;0.10;0.10;;;9.00;99.90;;;;;;6296805;22;20046;-80
2021/10/17 05:56:40;;;;;;;0.00;0.00;;;9.00;99.90;;;;;;6246674;22;20094;-79
2021/10/17 05:59:09;;;;;;;0.17;0.17;;;9.00;99.90;;;;;;6296950;22;20451;-80
2021/10/17 06:01:36;;;;;;;0.00;0.00;;;9.00;99.90;;;;;;6247786;22;20011;-80
2021/10/17 06:04:03;;;;;;;0.00;0.00;;;9.00;99.90;;;;;;6296717;22;20093;-79
2021/10/17 06:06:30;;;;;;;0.00;0.00;;;9.00;99.90;;;;;;6321972;22;20020;-79
2021/10/17 06:08:58;;;;;;;0.10;0.10;;;9.00;99.90;;;;;;6246352;22;20471;-79
2021/10/17 06:11:25;;;;;;;0.00;0.00;;;9.00;99.90;;;;;;6272032;22;20451;-79
2021/10/17 06:13:52;;;;;;;0.00;0.00;;;9.00;99.90;;;;;;6269938;22;20015;-79
2021/10/17 06:16:18;;;;;;;0.10;0.10;;;9.00;99.90;;;;;;6270444;22;20007;-79
2021/10/17 06:18:45;;;;;;;0.00;0.00;;;9.00;99.90;;;;;;6246604;22;20395;-79
2021/10/17 06:21:12;;;;;;;0.20;0.13;;;9.00;99.90;;;;;;6296492;22;20474;-79
2021/10/17 06:23:39;;;;;;;0.00;0.00;;;9.00;99.90;;;;;;6246861;22;20325;-79
2021/10/17 06:26:05;;;;;;;0.00;0.00;;;9.00;99.90;;;;;;6296647;22;20075;-80
2021/10/17 06:28:32;;;;;;;0.00;0.00;;;9.10;99.90;;;;;;6271968;22;20019;-80
2021/10/17 06:30:59;;;;;;;0.00;0.00;;;9.30;99.90;;;;;;6323512;22;20034;-80
2021/10/17 06:33:25;;;;;;;0.25;0.15;;;9.10;99.90;;;;;;6248156;22;20020;-80
2021/10/17 06:35:52;;;;;;;0.00;0.00;;;9.10;99.90;;;;;;6248150;22;20448;-80
2021/10/17 06:38:19;;;;;;;0.00;0.00;;;9.10;99.90;;;;;;6273128;22;20007;-80
2021/10/17 06:40:46;;;;;;;0.00;0.00;;;9.20;99.90;;;;;;6297438;22;20031;-78
2021/10/17 06:43:12;;;;;;;0.00;0.00;;;9.20;99.90;;;;;;6323686;22;20520;-80
2021/10/17 06:45:39;;;;;;;0.00;0.00;;;9.20;99.90;;;;;;6273294;22;20073;-80
2021/10/17 06:48:06;;;;;;;0.05;0.05;;;9.20;99.90;;;;;;6298194;22;20019;-80
2021/10/17 06:50:32;;;;;;;0.00;0.00;;;9.20;99.90;;;;;;6298634;22;20019;-80
2021/10/17 06:52:59;;;;;;;0.00;0.00;;;9.20;99.90;;;;;;6248068;22;20015;-80
2021/10/17 06:55:26;;;;;;;0.00;0.00;;;9.20;99.90;;;;;;6298301;22;20019;-80
2021/10/17 06:57:52;;;;;;;0.10;0.10;;;9.30;99.90;;;;;;6298722;22;20070;-80
2021/10/17 07:00:19;;;;;;;0.20;0.20;;;9.20;99.90;;;;;;6323492;22;20012;-80
2021/10/17 07:02:46;;;;;;;0.00;0.00;;;9.20;99.90;;;;;;6323510;22;20023;-79
2021/10/17 07:05:13;;;;;;;0.10;0.10;;;9.30;99.90;;;;;;6297995;22;20091;-79
2021/10/17 07:07:40;;;;;;;0.00;0.00;;;9.30;99.90;;;;;;6324226;22;20581;-80
2021/10/17 07:10:06;;;;;;;0.00;0.00;;;9.30;99.90;;;;;;6298212;22;20023;-80
2021/10/17 07:12:33;;;;;;;0.10;0.10;;;9.30;99.90;;;;;;6273125;22;20019;-79
2021/10/17 07:15:00;;;;;;;0.10;0.10;;;9.40;99.90;;;;;;6273113;22;20160;-80
2021/10/17 07:17:26;;;;;;;0.00;0.00;;;9.40;99.90;;;;;;6297812;22;20038;-80
2021/10/17 07:19:53;;;;;;;0.10;0.10;;;9.40;99.90;;;;;;6247780;22;20015;-79
2021/10/17 07:22:20;;;;;;;0.00;0.00;;;9.40;99.90;;;;;;6298046;22;20011;-79
2021/10/17 07:24:46;;;;;;;0.10;0.10;;;9.40;99.90;;;;;;6248005;22;20023;-80
2021/10/17 07:27:13;;;;;;;0.00;0.00;;;9.50;99.90;;;;;;6274654;22;20008;-80
2021/10/17 07:29:40;;;;;;;0.00;0.00;;;9.50;99.90;;;;;;6275171;22;20063;-80
2021/10/17 07:32:07;;;;;;;0.00;0.00;;;9.50;99.90;;;;;;6272751;22;20053;-79
2021/10/17 07:34:33;;;;;;;0.00;0.00;;;9.40;99.90;;;;;;6298201;22;20045;-79
2021/10/17 07:37:00;;;;;;;0.00;0.00;;;9.50;99.90;;;;;;6272423;22;20015;-79
2021/10/17 07:39:27;;;;;;;0.10;0.10;;;9.50;99.90;;;;;;6297666;22;20015;-79
2021/10/17 07:41:53;;;;;;;0.00;0.00;;;9.50;99.90;;;;;;6241919;22;20089;-80
2021/10/17 07:44:20;;;;;;;0.00;0.00;;;9.50;99.90;;;;;;6266956;22;20019;-79
2021/10/17 07:46:47;;;;;;;0.10;0.10;;;9.60;99.90;;;;;;6292379;22;20008;-80
2021/10/17 07:49:13;;;;;;;0.00;0.00;;;9.60;99.90;;;;;;6241919;22;20448;-79
2021/10/17 07:51:40;;;;;;;0.10;0.10;;;9.70;99.90;;;;;;6242028;22;20015;-79
2021/10/17 07:54:08;;;;;;;0.00;0.00;;;9.70;99.90;;;;;;6242509;22;20023;-79
2021/10/17 07:56:36;;;;;;;0.00;0.00;;;9.80;99.90;;;;;;6267385;22;20034;-79
2021/10/17 07:59:03;;;;;;;0.00;0.00;;;9.80;99.90;;;;;;6266659;22;20012;-79
2021/10/17 08:01:30;;;;;;;0.00;0.00;;;9.80;99.90;;;;;;6266696;22;20016;-79
2021/10/17 08:03:56;;;;;;;0.00;0.00;;;9.90;99.90;;;;;;6292013;22;20034;-79
2021/10/17 08:06:23;;;;;;;0.17;0.10;;;9.90;99.90;;;;;;6292197;22;20015;-79
2021/10/17 08:08:49;;;;;;;0.00;0.00;;;10.00;99.90;;;;;;6242015;22;20019;-79
2021/10/17 08:11:16;;;;;;;0.00;0.00;;;9.90;99.90;;;;;;6241430;22;20019;-79
2021/10/17 08:13:46;;;;;;;0.13;0.13;;;9.90;99.90;;;;;;6241668;22;20031;-79
2021/10/17 08:16:13;;;;;;;0.00;0.00;;;9.90;99.90;;;;;;6241512;22;20011;-79
2021/10/17 08:18:41;;;;;;;0.00;0.00;;;10.00;99.90;;;;;;6292681;22;20055;-79
2021/10/17 08:21:08;;;;;;;0.30;0.30;;;10.00;99.90;;;;;;6291706;22;20020;-79
2021/10/17 08:23:35;;;;;;;0.00;0.00;;;9.90;99.90;;;;;;6267044;22;20019;-79
2021/10/17 08:26:02;;;;;;;0.00;0.00;;;9.90;99.90;;;;;;6266672;22;20027;-79
2021/10/17 08:28:29;;;;;;;0.00;0.00;;;10.00;99.90;;;;;;6266391;22;20019;-79
2021/10/17 08:30:58;;;;;;;0.00;0.00;;;9.90;99.90;;;;;;6291906;22;20020;-79
2021/10/17 08:33:26;;;;;;;0.10;0.10;;;9.90;99.90;;;;;;6266148;22;20066;-78
2021/10/17 08:35:53;;;;;;;0.03;0.03;;;10.00;99.90;;;;;;6266373;22;20436;-84
2021/10/17 08:38:20;;;;;;;0.00;0.00;;;10.00;99.90;;;;;;6266469;22;20392;-82
2021/10/17 08:40:53;;;;;;;0.00;0.00;;;10.00;99.90;;;;;;6282069;22;20019;-82
2021/10/17 08:43:19;;;;;;;0.03;0.03;;;10.00;99.90;;;;;;6297507;22;20019;-82
2021/10/17 08:45:46;;;;;;;0.00;0.00;;;10.00;99.90;;;;;;6247547;22;20023;-83
2021/10/17 08:48:13;;;;;;;0.00;0.00;;;10.00;99.90;;;;;;6321931;22;20011;-85
2021/10/17 08:50:41;;;;;;;0.00;0.00;;;10.00;99.90;;;;;;6297621;22;20161;-85
2021/10/17 08:53:08;;;;;;;0.00;0.00;;;10.00;99.90;;;;;;6297120;22;20019;-84
2021/10/17 08:55:35;;;;;;;0.00;0.00;;;10.00;99.90;;;;;;6296890;22;20011;-85
2021/10/17 08:58:02;;;;;;;0.00;0.00;;;10.00;99.90;;;;;;6272296;22;20335;-84
2021/10/17 09:00:30;;;;;;;0.00;0.00;;;10.00;99.90;;;;;;6297080;22;20102;-81
2021/10/17 09:02:58;;;;;;;0.30;0.28;;;10.10;99.90;;;;;;6297025;22;20019;-80
2021/10/17 09:05:37;;;;;;;0.00;0.00;;;10.10;99.90;;;;;;6322389;22;20018;-80
2021/10/17 09:08:04;;;;;;;0.00;0.00;;;10.10;99.90;;;;;;6297336;22;20050;-81
2021/10/17 09:10:32;;;;;;;0.00;0.00;;;10.10;99.90;;;;;;6246929;22;20026;-81
2021/10/17 09:13:25;;;;;;;0.00;0.00;;;10.10;99.90;;;;;;6296953;22;20041;-81
2021/10/17 09:15:55;;;;;;;0.03;0.03;;;10.10;99.90;;;;;;6265976;22;20341;-81
2021/10/17 09:18:23;;;;;;;0.00;0.00;;;10.10;99.90;;;;;;6298052;22;20044;-80
2021/10/17 09:20:55;;;;;;;0.10;0.10;;;10.10;99.90;;;;;;6297085;22;20011;-81
2021/10/17 09:23:21;;;;;;;0.73;0.13;;;10.20;99.90;;;;;;6296937;22;20025;-81
2021/10/17 09:25:50;;;;;;;0.00;0.00;;;10.20;99.90;;;;;;6297249;22;20023;-81
2021/10/17 09:28:28;;;;;;;0.10;0.10;;;10.20;99.90;;;;;;6297062;22;20050;-81
2021/10/17 09:31:02;;;;;;;0.10;0.10;;;10.20;99.90;;;;;;6297141;22;20019;-81
2021/10/17 09:33:29;;;;;;;0.00;0.00;;;10.20;99.90;;;;;;6298005;22;20408;-80
2021/10/17 09:35:56;;;;;;;0.00;0.00;;;10.30;99.90;;;;;;6297177;22;20019;-81
2021/10/17 09:38:42;;;;;;;0.00;0.00;;;10.30;99.90;;;;;;6271686;22;20694;-81
2021/10/17 09:41:20;;;;;;;0.00;0.00;;;10.30;99.90;;;;;;6298473;22;20020;-81
2021/10/17 09:43:56;;;;;;;0.10;0.10;;;10.40;99.90;;;;;;6297038;22;20718;-83
2021/10/17 09:46:24;;;;;;;0.00;0.00;;;10.40;99.90;;;;;;6297369;22;20043;-83
2021/10/17 09:48:51;;;;;;;0.00;0.00;;;10.40;99.90;;;;;;6272364;22;20099;-83
2021/10/17 09:51:26;;;;;;;0.00;0.00;;;10.50;99.90;;;;;;6297215;22;20015;-82
2021/10/17 09:53:59;;;;;;;0.10;0.10;;;10.50;99.90;;;;;;6297382;22;20539;-82
2021/10/17 09:56:35;;;;;;;0.00;0.00;;;10.50;99.90;;;;;;6297232;22;20101;-82
2021/10/17 09:59:07;;;;;;;0.00;0.00;;;10.50;99.90;;;;;;6323019;22;20021;-82
2021/10/17 10:01:35;;;;;;;0.00;0.00;;;10.60;99.90;;;;;;6297251;22;20061;-82
2021/10/17 10:04:08;;;;;;;0.00;0.00;;;10.60;99.90;;;;;;6297241;22;20047;-82
2021/10/17 10:06:35;;;;;;;0.10;0.10;;;10.60;99.90;;;;;;6297433;22;20734;-82
2021/10/17 10:09:07;;;;;;;0.00;0.00;;;10.70;99.90;;;;;;6324380;22;20007;-83
2021/10/17 10:11:34;;;;;;;0.10;0.10;;;10.70;99.90;;;;;;6273450;22;20085;-82
2021/10/17 10:14:06;;;;;;;0.00;0.00;;;10.70;99.90;;;;;;6274152;22;20016;-82
2021/10/17 10:16:35;;;;;;;0.10;0.10;;;10.80;99.90;;;;;;6299054;22;20037;-82
2021/10/17 10:19:08;;;;;;;0.00;0.00;;;10.80;99.90;;;;;;6274957;22;20040;-82
2021/10/17 10:21:37;;;;;;;0.00;0.00;;;10.90;99.90;;;;;;6298595;22;20344;-82
2021/10/17 10:24:10;;;;;;;0.20;0.10;;;10.90;99.90;;;;;;6324616;22;20026;-83
2021/10/17 10:26:39;;;;;;;0.00;0.00;;;11.00;99.90;;;;;;6324428;22;20062;-83
2021/10/17 10:29:05;;;;;;;0.00;0.00;;;11.00;99.90;;;;;;6274420;22;20443;-83
2021/10/17 10:31:52;;;;;;;0.00;0.00;;;11.00;99.90;;;;;;6298513;22;20022;-83
2021/10/17 10:34:22;;;;;;;0.00;0.00;;;11.00;99.90;;;;;;6299011;22;20026;-83
2021/10/17 10:36:54;;;;;;;0.00;0.00;;;11.10;99.90;;;;;;6298882;22;20015;-83
2021/10/17 10:39:23;;;;;;;0.03;0.03;;;11.10;99.90;;;;;;6298984;22;20018;-83
2021/10/17 10:42:12;;;;;;;0.00;0.00;;;11.10;99.90;;;;;;6298860;22;20742;-82
2021/10/17 10:44:41;;;;;;;0.20;0.20;;;11.20;99.90;;;;;;6298463;22;20057;-83
2021/10/17 10:47:28;;;;;;;0.00;0.00;;;11.20;99.90;;;;;;6299600;22;20019;-84
2021/10/17 10:49:59;;;;;;;0.00;0.00;;;11.20;99.90;;;;;;6299763;22;20321;-83
2021/10/17 10:52:28;;;;;;;0.00;0.00;;;11.20;99.90;;;;;;6273363;22;20447;-83
2021/10/17 10:55:00;;;;;;;0.00;0.00;;;11.30;99.90;;;;;;6298726;22;20122;-82
2021/10/17 10:57:31;;;;;;;0.00;0.00;;;11.30;99.90;;;;;;6273492;22;20098;-83
2021/10/17 11:00:04;;;;;;;0.20;0.20;;;11.20;99.90;;;;;;6299887;22;20038;-83
2021/10/17 11:02:32;;;;;;;0.00;0.00;;;11.30;99.90;;;;;;6298630;22;20026;-84
2021/10/17 11:05:16;;;;;;;0.10;0.10;;;11.30;99.90;;;;;;6298898;22;20448;-84
2021/10/17 11:07:47;;;;;;;0.00;0.00;;;11.40;99.90;;;;;;6298385;22;20085;-83
2021/10/17 11:10:23;;;;;;;0.00;0.00;;;11.40;99.90;;;;;;6323831;22;20129;-83
2021/10/17 11:12:55;;;;;;;0.00;0.00;;;11.40;99.90;;;;;;6298193;22;20022;-83
2021/10/17 11:15:24;;;;;;;0.10;0.10;;;11.40;99.90;;;;;;6298424;22;20407;-83
2021/10/17 11:17:56;;;;;;;0.00;0.00;;;11.40;99.90;;;;;;6297638;22;20027;-83
2021/10/17 11:20:29;;;;;;;0.00;0.00;;;11.40;99.90;;;;;;6273306;22;20090;-83
2021/10/17 11:22:57;;;;;;;0.00;0.00;;;11.40;99.90;;;;;;6298140;22;20027;-82
2021/10/17 11:25:25;;;;;;;0.00;0.00;;;11.40;99.90;;;;;;6298752;22;20021;-83
2021/10/17 11:27:53;;;;;;;0.25;0.10;;;11.40;99.90;;;;;;6272231;22;20090;-83
2021/10/17 11:30:22;;;;;;;0.10;0.10;;;11.40;99.90;;;;;;6298040;22;20019;-83
2021/10/17 11:32:49;;;;;;;0.00;0.00;;;11.50;99.90;;;;;;6298021;22;20161;-83
2021/10/17 11:35:16;;;;;;;0.25;0.13;;;11.50;99.90;;;;;;6298226;22;20016;-84
2021/10/17 11:37:51;;;;;;;0.00;0.00;;;11.60;99.90;;;;;;6297882;22;20016;-83
2021/10/17 11:40:18;;;;;;;0.00;0.00;;;11.70;99.90;;;;;;6298096;22;20027;-83
2021/10/17 11:42:51;;;;;;;0.47;0.10;;;11.80;99.90;;;;;;6297769;22;20015;-83
2021/10/17 11:45:45;;;;;;;0.10;0.10;;;11.80;99.90;;;;;;6298319;22;20019;-83
2021/10/17 11:48:13;;;;;;;0.00;0.00;;;11.90;99.90;;;;;;6311216;22;20329;-83
2021/10/17 11:50:43;;;;;;;0.00;0.00;;;12.00;99.90;;;;;;6272715;22;20352;-82
2021/10/17 11:53:11;;;;;;;0.00;0.00;;;12.10;99.90;;;;;;6298028;22;20019;-83
2021/10/17 11:55:39;;;;;;;0.10;0.10;;;12.20;99.90;;;;;;6298383;22;20011;-83
2021/10/17 11:58:14;;;;;;;0.00;0.00;;;12.30;99.90;;;;;;6298012;22;20011;-83
2021/10/17 12:00:42;;;;;;;0.00;0.00;;;12.30;99.90;;;;;;6323873;22;20011;-83
2021/10/17 12:03:09;;;;;;;0.00;0.00;;;12.30;99.90;;;;;;6273067;22;20037;-83
2021/10/17 12:05:42;;;;;;;0.10;0.10;;;12.30;99.90;;;;;;6323740;22;20026;-83
2021/10/17 12:08:28;;;;;;;0.10;0.10;;;12.40;99.90;;;;;;6273646;22;20100;-83
2021/10/17 12:11:07;;;;;;;0.03;0.03;;;12.40;99.90;;;;;;6297967;22;20081;-83
2021/10/17 12:13:46;;;;;;;0.00;0.00;;;12.40;99.90;;;;;;6298098;22;20011;-82
2021/10/17 12:16:21;;;;;;;0.03;0.00;;;12.50;99.90;;;;;;6297888;22;20051;-83
2021/10/17 12:18:54;;;;;;;0.10;0.10;;;12.50;99.90;;;;;;6297764;22;20015;-81
2021/10/17 12:21:25;;;;;;;0.10;0.10;;;12.50;99.90;;;;;;6323564;22;20015;-83
2021/10/17 12:23:53;;;;;;;0.05;0.05;;;12.40;99.90;;;;;;6297939;22;20026;-82
2021/10/17 12:26:32;;;;;;;0.10;0.10;;;12.40;99.90;;;;;;6297475;22;20019;-82
2021/10/17 12:29:12;;;;;;;0.13;0.13;;;12.40;99.90;;;;;;6297553;22;20026;-83
2021/10/17 12:31:54;;;;;;;0.00;0.00;;;12.40;99.90;;;;;;6297704;22;20023;-82
2021/10/17 12:34:40;;;;;;;0.10;0.10;;;12.30;99.90;;;;;;6297864;22;20015;-82
2021/10/17 12:37:08;;;;;;;0.10;0.10;;;12.40;99.90;;;;;;6323354;22;20076;-83
2021/10/17 12:39:36;;;;;;;0.00;0.00;;;12.30;99.90;;;;;;6298341;22;20011;-82
2021/10/17 12:42:04;;;;;;;0.10;0.10;;;12.40;99.90;;;;;;6272446;22;20094;-83
2021/10/17 12:44:46;;;;;;;0.10;0.10;;;12.40;99.90;;;;;;6272900;22;20089;-83
2021/10/17 12:47:13;;;;;;;0.22;0.20;;;12.30;99.90;;;;;;6297581;22;20021;-83
2021/10/17 12:49:42;;;;;;;0.00;0.00;;;12.30;99.90;;;;;;6297928;22;20094;-83
2021/10/17 12:52:09;;;;;;;0.00;0.00;;;12.30;99.90;;;;;;6297826;22;20015;-82
2021/10/17 12:54:39;;;;;;;0.00;0.00;;;12.40;99.90;;;;;;6297611;22;20015;-82
2021/10/17 12:57:08;;;;;;;0.00;0.00;;;12.40;99.90;;;;;;6323125;22;20019;-82
2021/10/17 12:59:58;;;;;;;0.00;0.00;;;12.50;99.90;;;;;;6297737;22;20344;-82